Time;durP1;ratioP1;P1;durP2;ratioP2;P2;SDS_P1;SDS_P2;PMS_P1;PMS_P2;Temp;Humidity;BMP_temperature;BMP_pressure;BME280_temperature;BME280_humidity;BME280_pressure;Samples;Min_cycle;Max_cycle;Signal;HPM_P1;HPM_P2
2022/06/15 00:01:15;;;;;;;5.88;3.80;;;;;;;12.35;100.00;163794.63;5070197;28;20091;-61
2022/06/15 00:03:41;;;;;;;9.63;3.95;;;;;;;12.31;100.00;163783.84;5072257;28;20028;-61
2022/06/15 00:06:16;;;;;;;8.07;3.30;;;;;;;12.31;100.00;163783.84;5070375;28;20415;-61
2022/06/15 00:08:43;;;;;;;6.90;3.50;;;;;;;12.31;100.00;163783.84;5071742;28;20028;-61
2022/06/15 00:11:16;;;;;;;5.55;3.22;;;;;;;12.27;100.00;163771.66;5069701;28;20110;-61
2022/06/15 00:13:42;;;;;;;5.63;3.25;;;;;;;12.17;100.00;163746.00;5071482;28;20103;-61
2022/06/15 00:16:07;;;;;;;10.43;3.17;;;;;;;12.09;100.00;163724.38;5070313;28;20041;-61
2022/06/15 00:18:34;;;;;;;5.97;3.45;;;;;;;12.04;100.00;163713.56;5071669;28;20074;-61
2022/06/15 00:21:00;;;;;;;7.47;3.50;;;;;;;12.02;100.00;163708.19;5069698;28;20043;-61
2022/06/15 00:23:27;;;;;;;6.47;3.35;;;;;;;12.02;100.00;163706.81;5071234;28;20132;-61
2022/06/15 00:25:53;;;;;;;6.07;3.42;;;;;;;12.00;100.00;163702.75;5069554;28;20044;-61
2022/06/15 00:28:20;;;;;;;6.78;3.30;;;;;;;11.98;100.00;163697.34;5071775;28;20475;-61
2022/06/15 00:30:49;;;;;;;7.63;4.35;;;;;;;11.98;100.00;163696.03;5069809;28;20119;-61
2022/06/15 00:33:14;;;;;;;;;;;;;;;11.97;100.00;163694.63;5071678;28;20032;-61
2022/06/15 00:35:40;;;;;;;7.50;4.60;;;;;;;11.98;100.00;163697.34;5069709;28;19919;-61
2022/06/15 00:38:07;;;;;;;12.10;5.00;;;;;;;11.96;100.00;163691.88;5070862;28;20051;-61
2022/06/15 00:40:33;;;;;;;11.40;4.20;;;;;;;11.96;100.00;163691.88;5069726;28;20063;-59
2022/06/15 00:42:58;;;;;;;13.15;4.60;;;;;;;11.89;100.00;163672.97;5070880;28;20032;-59
2022/06/15 00:45:24;;;;;;;10.88;4.82;;;;;;;11.84;100.00;163660.81;5069540;28;20052;-59
2022/06/15 00:47:50;;;;;;;7.88;5.32;;;;;;;11.77;100.00;163640.56;5070559;28;20032;-59
2022/06/15 00:50:23;;;;;;;7.97;3.33;;;;;;;11.64;100.00;163608.16;5069631;28;20056;-59
2022/06/15 00:53:14;;;;;;;13.18;5.50;;;;;;;11.49;100.00;163567.63;5070006;28;20886;-59
2022/06/15 00:55:41;;;;;;;6.03;4.15;;;;;;;11.38;100.00;163540.63;5067734;28;20044;-58
2022/06/15 00:58:09;;;;;;;11.57;4.70;;;;;;;11.31;100.00;163520.38;5070399;28;20373;-59
2022/06/15 01:00:35;;;;;;;;;;;;;;;11.24;100.00;163502.81;5070297;28;20381;-59
2022/06/15 01:03:00;;;;;;;9.18;4.57;;;;;;;11.18;100.00;163486.59;5070688;28;19916;-59
2022/06/15 01:05:36;;;;;;;9.65;4.43;;;;;;;11.13;100.00;163474.44;5069144;28;20040;-59
2022/06/15 01:08:16;;;;;;;11.27;5.25;;;;;;;11.12;100.00;163471.75;5070531;28;20119;-59
2022/06/15 01:10:57;;;;;;;11.52;5.78;;;;;;;11.07;100.00;163458.25;5068006;28;20407;-58
2022/06/15 01:13:33;;;;;;;7.82;5.30;;;;;;;10.91;100.00;163417.75;5070204;28;20043;-58
2022/06/15 01:16:07;;;;;;;8.50;4.85;;;;;;;10.84;100.00;163397.47;5068751;28;20032;-58
2022/06/15 01:19:07;;;;;;;6.88;4.72;;;;;;;10.71;100.00;163365.09;5070433;28;20016;-59
2022/06/15 01:21:44;;;;;;;10.15;4.75;;;;;;;10.57;100.00;163327.28;5068543;28;20124;-59
2022/06/15 01:24:44;;;;;;;7.85;4.93;;;;;;;10.45;100.00;163296.25;5070223;28;20047;-59
2022/06/15 01:27:47;;;;;;;4.82;4.30;;;;;;;-146.58;100.00;69501.63;5058686;28;20044;-59
2022/06/15 01:30:20;;;;;;;6.07;4.53;;;;;;;-146.58;100.00;69501.63;5068664;28;20082;-60
2022/06/15 01:33:23;;;;;;;9.88;4.15;;;;;;;-146.58;100.00;69501.63;5070256;28;20476;-59
2022/06/15 01:36:13;;;;;;;10.80;5.75;;;;;;;-146.58;100.00;69501.63;5068140;28;20059;-59
2022/06/15 01:39:04;;;;;;;6.68;4.80;;;;;;;-146.58;100.00;69501.63;5069970;28;20040;-59
2022/06/15 01:41:54;;;;;;;8.75;5.55;;;;;;;9.83;100.00;163135.63;5069159;28;20032;-59
2022/06/15 01:44:29;;;;;;;15.50;7.30;;;;;;;9.80;100.00;163127.50;5069710;28;20036;-59
2022/06/15 01:46:56;;;;;;;5.10;4.53;;;;;;;9.75;100.00;163114.03;5068562;28;20043;-59
2022/06/15 01:49:36;;;;;;;8.13;4.50;;;;;;;9.68;100.00;163095.16;5068753;28;20195;-59
2022/06/15 01:52:04;;;;;;;7.45;4.90;;;;;;;9.66;100.00;163091.13;5067620;28;20041;-59
2022/06/15 01:54:35;;;;;;;9.10;4.25;;;;;;;9.61;100.00;163076.28;5069951;28;20093;-60
2022/06/15 01:57:04;;;;;;;4.53;4.13;;;;;;;9.51;100.00;163051.97;5068395;28;20037;-60
2022/06/15 01:59:55;;;;;;;9.15;5.43;;;;;;;9.42;100.00;163027.69;5069553;28;20021;-59
2022/06/15 02:02:48;;;;;;;10.05;6.82;;;;;;;9.35;100.00;163008.81;5068638;28;20422;-60
2022/06/15 02:05:26;;;;;;;10.15;5.38;;;;;;;9.33;100.00;163004.78;5063919;28;20037;-61
2022/06/15 02:08:11;;;;;;;8.48;5.20;;;;;;;9.35;100.00;163008.81;5049810;28;20033;-59
2022/06/15 02:10:56;;;;;;;8.90;4.47;;;;;;;9.36;100.00;163011.50;5048459;28;20048;-59
2022/06/15 02:13:29;;;;;;;5.32;4.30;;;;;;;9.34;100.00;163007.47;5049466;28;20033;-60
2022/06/15 02:16:04;;;;;;;8.52;5.35;;;;;;;9.32;100.00;163000.75;5048190;28;20094;-59
2022/06/15 02:18:32;;;;;;;6.13;4.72;;;;;;;9.29;100.00;162992.63;5049992;28;20103;-59
2022/06/15 02:21:10;;;;;;;8.43;5.07;;;;;;;9.25;100.00;162983.19;5049355;28;20595;-59
2022/06/15 02:23:38;;;;;;;8.52;5.75;;;;;;;9.23;100.00;162976.44;5054124;28;20033;-60
2022/06/15 02:26:05;;;;;;;11.30;5.77;;;;;;;9.11;100.00;162945.44;5052008;28;20582;-60
2022/06/15 02:28:38;;;;;;;7.03;6.22;;;;;;;9.18;100.00;162964.31;5053201;28;20431;-60
2022/06/15 02:31:03;;;;;;;11.32;6.60;;;;;;;9.16;100.00;162958.91;5052095;28;20060;-60
2022/06/15 02:33:32;;;;;;;10.27;5.70;;;;;;;9.10;100.00;162942.72;5053528;28;20310;-60
2022/06/15 02:35:59;;;;;;;13.20;5.90;;;;;;;9.05;100.00;162930.59;5066725;28;20142;-60
2022/06/15 02:38:27;;;;;;;14.25;7.95;;;;;;;9.05;100.00;162930.59;5073542;28;20031;-60
2022/06/15 02:40:53;;;;;;;9.43;5.93;;;;;;;9.05;100.00;162930.59;5071918;28;20074;-60
2022/06/15 02:43:22;;;;;;;9.60;5.65;;;;;;;9.07;100.00;162936.00;5073151;28;20095;-60
2022/06/15 02:45:50;;;;;;;10.52;5.88;;;;;;;9.04;100.00;162927.94;5071895;28;20036;-60
2022/06/15 02:48:16;;;;;;;10.35;6.70;;;;;;;9.01;100.00;162919.81;5071602;28;20017;-60
2022/06/15 02:51:02;;;;;;;18.90;7.18;;;;;;;8.94;100.00;162902.28;5071611;28;20072;-60
2022/06/15 02:53:30;;;;;;;5.93;5.43;;;;;;;8.95;100.00;162904.97;5073308;28;20032;-60
2022/06/15 02:55:58;;;;;;;7.82;6.55;;;;;;;8.96;100.00;162906.34;5071742;28;20044;-60
2022/06/15 02:58:29;;;;;;;8.27;5.72;;;;;;;8.95;100.00;162903.66;5072884;28;20024;-61
2022/06/15 03:00:56;;;;;;;10.80;6.82;;;;;;;8.95;100.00;162903.66;5071732;28;20072;-61
2022/06/15 03:03:23;;;;;;;17.92;8.88;;;;;;;8.92;100.00;162895.53;5060924;28;20112;-61
2022/06/15 03:05:52;;;;;;;6.93;6.18;;;;;;;8.92;100.00;162895.53;5051369;28;20036;-61
2022/06/15 03:08:19;;;;;;;9.75;7.03;;;;;;;8.89;100.00;162890.19;5053038;28;20060;-58
2022/06/15 03:10:44;;;;;;;10.80;6.80;;;;;;;8.87;100.00;162883.38;5051658;28;20048;-58
2022/06/15 03:13:10;;;;;;;15.10;7.55;;;;;;;8.88;100.00;162887.47;5052365;28;20021;-61
2022/06/15 03:15:36;;;;;;;8.68;5.85;;;;;;;8.89;100.00;162890.19;5051571;28;20041;-61
2022/06/15 03:18:02;;;;;;;6.57;5.07;;;;;;;8.85;100.00;162879.38;5054071;28;20028;-61
2022/06/15 03:20:28;;;;;;;8.57;5.30;;;;;;;8.82;100.00;162871.31;5050756;28;20395;-61
2022/06/15 03:22:53;;;;;;;12.93;6.88;;;;;;;8.72;100.00;162845.66;5052199;28;20029;-61
2022/06/15 03:25:18;;;;;;;7.97;5.75;;;;;;;8.62;100.00;162817.34;5052411;28;20052;-61
2022/06/15 03:27:44;;;;;;;12.20;5.68;;;;;;;8.54;100.00;162798.47;5063813;28;20372;-61
2022/06/15 03:30:11;;;;;;;10.15;6.70;;;;;;;8.52;100.00;162793.09;5060305;28;20390;-61
2022/06/15 03:32:36;;;;;;;9.23;7.05;;;;;;;8.49;100.00;162785.00;5064142;28;20099;-61
2022/06/15 03:35:02;;;;;;;13.73;8.45;;;;;;;8.51;100.00;162790.41;5061485;28;20025;-60
2022/06/15 03:37:28;;;;;;;15.15;8.38;;;;;;;8.51;100.00;162790.41;5062286;28;20052;-61
2022/06/15 03:39:54;;;;;;;7.75;6.07;;;;;;;8.57;100.00;162806.56;5060807;28;20060;-61
2022/06/15 03:42:22;;;;;;;9.70;6.20;;;;;;;8.61;100.00;162814.63;5052938;28;20021;-61
2022/06/15 03:44:48;;;;;;;8.87;6.73;;;;;;;8.65;100.00;162825.44;5067760;28;20024;-60
2022/06/15 03:47:17;;;;;;;10.68;6.90;;;;;;;8.67;100.00;162832.19;5072253;28;20148;-60
2022/06/15 03:49:44;;;;;;;8.52;5.93;;;;;;;8.68;100.00;162833.50;5071664;28;20029;-60
2022/06/15 03:52:10;;;;;;;10.27;6.07;;;;;;;8.69;100.00;162836.22;5070445;28;20041;-61
2022/06/15 03:54:36;;;;;;;8.50;5.55;;;;;;;8.75;100.00;162852.38;5072649;28;20028;-62
2022/06/15 03:57:03;;;;;;;7.80;6.15;;;;;;;8.80;100.00;162865.91;5070255;28;20047;-62
2022/06/15 03:59:28;;;;;;;8.63;6.70;;;;;;;8.78;100.00;162860.50;5072182;28;20024;-60
2022/06/15 04:01:54;;;;;;;8.95;6.72;;;;;;;8.78;100.00;162860.50;5070053;28;20533;-60
2022/06/15 04:04:19;;;;;;;7.53;6.25;;;;;;;8.73;100.00;162847.03;5071524;28;20448;-61
2022/06/15 04:06:46;;;;;;;6.25;5.72;;;;;;;8.68;100.00;162833.50;5070508;28;20519;-62
2022/06/15 04:09:11;;;;;;;12.18;6.53;;;;;;;8.66;100.00;162828.16;5072371;28;20167;-61
2022/06/15 04:14:21;;;;;;;13.57;8.48;;;;;;;8.68;100.00;162834.88;5070808;28;20474;-61
2022/06/15 04:16:53;;;;;;;10.25;7.55;;;;;;;8.67;100.00;162830.84;5070187;28;20056;-61
2022/06/15 04:19:19;;;;;;;10.60;7.53;;;;;;;8.75;100.00;162852.38;5071515;28;20056;-61
2022/06/15 04:21:44;;;;;;;9.85;7.20;;;;;;;8.75;100.00;162852.38;5069467;28;20094;-60
2022/06/15 04:24:11;;;;;;;8.85;6.32;;;;;;;8.82;100.00;162871.31;5071025;28;20032;-59
2022/06/15 04:26:38;;;;;;;7.93;7.18;;;;;;;8.88;100.00;162886.09;5069772;28;20412;-60
2022/06/15 04:29:03;;;;;;;10.93;6.63;;;;;;;8.94;100.00;162900.94;5070723;28;20047;-60
2022/06/15 04:31:28;;;;;;;9.50;6.80;;;;;;;9.03;100.00;162926.56;5070041;28;20406;-60
2022/06/15 04:33:54;;;;;;;14.52;7.20;;;;;;;9.12;100.00;162949.47;5070333;28;20042;-60
2022/06/15 04:36:21;;;;;;;14.52;7.55;;;;;;;9.25;100.00;162981.84;5070197;28;20048;-60
2022/06/15 04:38:46;;;;;;;10.63;7.95;;;;;;;9.33;100.00;163003.44;5071137;28;20029;-60
2022/06/15 04:41:12;;;;;;;13.27;8.45;;;;;;;9.45;100.00;163035.81;5069699;28;20036;-60
2022/06/15 04:43:37;;;;;;;13.07;8.65;;;;;;;9.55;100.00;163060.09;5070621;28;20082;-60
2022/06/15 04:46:03;;;;;;;11.18;8.18;;;;;;;9.69;100.00;163099.19;5069358;28;20114;-60
2022/06/15 04:48:29;;;;;;;7.70;6.63;;;;;;;9.90;100.00;163151.81;5071034;28;20031;-60
2022/06/15 04:50:55;;;;;;;10.35;7.38;;;;;;;10.09;100.00;163201.75;5068846;28;20044;-60
2022/06/15 04:53:20;;;;;;;19.00;8.82;;;;;;;10.28;100.00;163253.00;5070584;28;20098;-60
2022/06/15 04:55:46;;;;;;;11.50;8.77;;;;;;;10.49;100.00;163307.06;5069485;28;20040;-60
2022/06/15 04:58:11;;;;;;;9.48;6.75;;;;;;;10.74;100.00;163373.22;5071263;28;20024;-60
2022/06/15 05:00:40;;;;;;;16.25;7.03;;;;;;;10.99;100.00;163437.97;5069684;28;20052;-60
2022/06/15 05:03:06;;;;;;;12.48;6.38;;;;;;;11.23;100.00;163500.09;5070848;28;20400;-60
2022/06/15 05:05:32;;;;;;;9.25;6.65;;;;;;;11.41;100.00;163548.75;5069670;28;20395;-60
2022/06/15 05:07:57;;;;;;;9.95;5.72;;;;;;;11.62;100.00;163602.75;5070569;28;20032;-60
2022/06/15 05:10:25;;;;;;;8.13;4.88;;;;;;;11.81;100.00;163651.34;5069044;28;20036;-60
2022/06/15 05:12:51;;;;;;;10.73;5.88;;;;;;;11.91;100.00;163678.38;5070411;28;20107;-60
2022/06/15 05:15:17;;;;;;;11.65;6.07;;;;;;;12.02;100.00;163708.19;5069415;28;20124;-60
2022/06/15 05:17:44;;;;;;;12.93;6.97;;;;;;;12.14;100.00;163737.88;5063479;28;20070;-60
2022/06/15 05:20:11;;;;;;;9.10;5.50;;;;;;;12.31;100.00;163783.84;5059174;28;20120;-60
2022/06/15 05:22:37;;;;;;;23.15;6.95;;;;;;;12.42;100.00;163812.22;5059110;28;20028;-60
2022/06/15 05:25:07;;;;;;;9.77;5.32;;;;;;;12.53;100.00;163840.59;5058543;28;20040;-60
2022/06/15 05:27:33;;;;;;;9.45;5.15;;;;;;;12.65;100.00;163873.00;5061212;28;20111;-60
2022/06/15 05:29:59;;;;;;;9.30;4.93;;;;;;;12.77;100.00;163902.75;5057399;28;20033;-59
2022/06/15 05:32:25;;;;;;;9.55;5.05;;;;;;;12.91;100.00;163940.63;5059992;28;20086;-59
2022/06/15 05:34:50;;;;;;;11.02;5.82;;;;;;;13.08;100.00;163983.81;5058639;28;20020;-58
2022/06/15 05:37:16;;;;;;;7.47;4.95;;;;;;;13.19;100.00;164013.59;5058916;28;20440;-58
2022/06/15 05:39:42;;;;;;;16.10;5.78;;;;;;;13.30;100.00;164043.31;5060801;28;20086;-58
2022/06/15 05:42:07;;;;;;;7.03;4.57;;;;;;;13.42;100.00;164073.13;5058543;28;20475;-57
2022/06/15 05:44:53;;;;;;;14.20;5.07;;;;;;;13.60;100.00;164121.78;5059280;28;20496;-57
2022/06/15 05:47:18;;;;;;;12.23;5.05;;;;;;;13.77;100.00;164166.47;5062605;28;20043;-57
2022/06/15 05:49:43;;;;;;;7.78;3.92;;;;;;;13.97;100.00;164217.84;5069849;28;20032;-57
2022/06/15 05:52:09;;;;;;;9.20;4.43;;;;;;;14.13;100.00;164259.75;5067198;28;20499;-57
2022/06/15 05:54:34;;;;;;;9.70;4.97;;;;;;;14.25;100.00;164292.25;5069907;28;20103;-57
2022/06/15 05:57:00;;;;;;;11.20;4.97;;;;;;;14.37;100.00;164322.00;5074868;28;20036;-57
2022/06/15 05:59:25;;;;;;;11.60;4.25;;;;;;;14.50;100.00;164357.16;5077118;28;20020;-57
2022/06/15 06:01:50;;;;;;;6.65;4.47;;;;;;;14.58;100.00;164378.81;5074934;28;20037;-57
2022/06/15 06:04:19;;;;;;;12.35;5.40;;;;;;;14.71;100.00;164411.31;5077017;28;20024;-57
2022/06/15 06:06:46;;;;;;;7.55;3.78;;;;;;;14.88;100.00;164457.34;5075237;28;20090;-57
2022/06/15 06:09:11;;;;;;;11.80;5.70;;;;;;;15.02;100.00;164493.91;5075307;28;20174;-57
2022/06/15 06:11:37;;;;;;;9.02;2.97;;;;;;;15.19;100.00;164538.56;5075248;28;20044;-57
2022/06/15 06:14:03;;;;;;;9.77;4.63;;;;;;;15.37;100.00;164584.59;5076964;28;20680;-57
2022/06/15 06:16:28;;;;;;;9.25;4.75;;;;;;;15.56;100.00;164634.69;5074835;28;20182;-57
2022/06/15 06:18:54;;;;;;;7.85;3.60;;;;;;;15.74;100.00;164680.69;5076624;28;20028;-57
2022/06/15 06:21:20;;;;;;;7.10;3.42;;;;;;;15.86;100.00;164714.59;5075285;28;20044;-57
2022/06/15 06:23:46;;;;;;;9.95;3.70;;;;;;;16.07;100.00;164768.75;5075172;28;20032;-57
2022/06/15 06:26:26;;;;;;;11.25;4.00;;;;;;;16.24;100.00;164812.09;5074438;28;20056;-57
2022/06/15 06:28:52;;;;;;;8.93;3.65;;;;;;;16.49;100.00;164878.47;5075126;28;20104;-57
2022/06/15 06:31:21;;;;;;;8.25;3.10;;;;;;;16.83;100.00;164966.53;5073786;28;20036;-57
2022/06/15 06:33:47;;;;;;;;;;;;;;;17.19;100.00;165061.41;5076593;28;20028;-57
2022/06/15 06:36:20;;;;;;;8.93;3.13;;;;;;;17.55;100.00;165156.28;5074397;28;19916;-57
2022/06/15 06:38:46;;;;;;;8.02;3.80;;;;;;;17.82;100.00;165228.13;5075789;28;20497;-57
2022/06/15 06:41:13;;;;;;;12.10;4.32;;;;;;;18.07;100.00;165294.59;5075200;28;20036;-57
2022/06/15 06:43:39;;;;;;;5.93;4.00;;;;;;;18.27;100.00;165346.16;5076644;28;20020;-57
2022/06/15 06:46:04;;;;;;;9.77;3.53;;;;;;;18.33;100.00;165361.03;5074458;28;20129;-57
2022/06/15 06:48:29;;;;;;;7.35;3.40;;;;;;;18.57;100.00;165424.78;5076510;28;20024;-57
2022/06/15 06:50:55;;;;;;;15.35;4.32;;;;;;;18.55;100.00;165419.34;5074860;28;20040;-58
2022/06/15 06:53:20;;;;;;;13.05;3.60;;;;;;;18.53;100.00;165413.91;5076351;28;20035;-57
2022/06/15 06:55:45;;;;;;;4.28;2.72;;;;;;;18.65;100.00;165446.44;5073973;28;20040;-58
2022/06/15 06:58:11;;;;;;;8.43;2.65;;;;;;;18.73;100.00;165466.81;5073444;28;20444;-58
2022/06/15 07:00:36;;;;;;;9.63;3.83;;;;;;;18.85;100.00;165498.00;5074628;28;20048;-58
2022/06/15 07:03:04;;;;;;;5.40;2.70;;;;;;;19.00;100.00;165538.75;5065473;28;20100;-57
2022/06/15 07:05:33;;;;;;;8.20;3.40;;;;;;;19.07;100.00;165555.03;5055138;28;20412;-57
2022/06/15 07:07:59;;;;;;;5.88;3.28;;;;;;;19.16;100.00;165579.47;5053225;28;20024;-58
2022/06/15 07:10:26;;;;;;;11.00;3.35;;;;;;;19.26;100.00;165606.56;5051791;28;20045;-58
2022/06/15 07:12:51;;;;;;;6.57;2.83;;;;;;;19.25;100.00;165603.84;5052988;28;20066;-58
2022/06/15 07:15:16;;;;;;;9.77;2.97;;;;;;;19.21;100.00;165591.69;5057980;28;20036;-57
2022/06/15 07:17:42;;;;;;;15.05;5.38;;;;;;;19.31;100.00;165620.16;5052729;28;20063;-57
2022/06/15 07:20:09;;;;;;;8.93;3.15;;;;;;;19.37;100.00;165635.03;5051446;28;20353;-57
2022/06/15 07:22:36;;;;;;;8.07;3.80;;;;;;;19.30;100.00;165617.44;5052833;28;20032;-57
2022/06/15 07:25:02;;;;;;;5.40;2.78;;;;;;;19.06;100.00;165553.69;5050958;28;20044;-58
2022/06/15 07:27:28;;;;;;;7.65;3.30;;;;;;;19.05;100.00;165549.59;5052624;28;20028;-57
2022/06/15 07:29:55;;;;;;;9.65;3.38;;;;;;;19.37;100.00;165633.72;5051228;28;20033;-57
2022/06/15 07:32:21;;;;;;;10.25;2.78;;;;;;;19.52;100.00;165674.41;5052465;28;20051;-58
2022/06/15 07:34:46;;;;;;;5.85;3.00;;;;;;;19.62;100.00;165701.53;5052355;28;20508;-57
2022/06/15 07:37:12;;;;;;;11.13;2.78;;;;;;;19.72;100.00;165725.97;5070976;28;20056;-58
2022/06/15 07:39:38;;;;;;;8.35;2.47;;;;;;;19.81;100.00;165750.41;5072378;28;20364;-57
2022/06/15 07:42:06;;;;;;;11.20;2.92;;;;;;;19.71;100.00;165723.25;5070942;28;20036;-58
2022/06/15 07:44:34;;;;;;;25.30;4.25;;;;;;;19.68;100.00;165715.13;5072495;28;20024;-58
2022/06/15 07:49:59;;;;;;;5.13;2.63;;;;;;;19.66;100.00;165712.41;5072705;28;20036;-58
2022/06/15 07:52:33;;;;;;;3.15;2.53;;;;;;;19.87;100.00;165766.72;5070934;28;20037;-58
2022/06/15 07:54:59;;;;;;;3.28;2.10;;;;;;;20.12;100.00;165833.22;5070908;28;20024;-57
2022/06/15 07:57:24;;;;;;;5.47;2.85;;;;;;;20.11;100.00;165830.50;5072492;28;20124;-57
2022/06/15 07:59:50;;;;;;;12.48;3.80;;;;;;;19.90;100.00;165773.50;5070631;28;20020;-57
2022/06/15 08:02:17;;;;;;;4.78;2.20;;;;;;;19.83;100.00;165755.84;5072260;28;20525;-58
2022/06/15 08:04:42;;;;;;;8.23;2.50;;;;;;;20.13;100.00;165834.59;5072271;28;20472;-58
2022/06/15 08:07:10;;;;;;;5.00;2.10;;;;;;;20.43;100.00;165914.66;5070715;28;20051;-58
2022/06/15 08:09:35;;;;;;;9.93;4.05;;;;;;;20.43;100.00;165913.34;5072092;28;20548;-58
2022/06/15 08:12:14;;;;;;;5.53;3.15;;;;;;;20.25;100.00;165867.16;5070095;28;20058;-58
2022/06/15 08:14:45;;;;;;;8.55;2.83;;;;;;;20.08;100.00;165821.00;5071790;28;20039;-58
2022/06/15 08:17:21;;;;;;;11.85;2.88;;;;;;;20.15;100.00;165838.66;5070437;28;20480;-57
2022/06/15 08:20:00;;;;;;;11.05;3.03;;;;;;;20.46;100.00;165921.44;5069710;28;20031;-56
2022/06/15 08:22:25;;;;;;;;;;;;;;;20.94;100.00;166047.75;5072143;28;20073;-57
2022/06/15 08:24:51;;;;;;;10.45;3.60;;;;;;;21.19;100.00;166114.28;5069980;28;19995;-57
2022/06/15 08:27:19;;;;;;;11.05;2.80;;;;;;;21.47;100.00;166187.66;5072136;28;20103;-57
2022/06/15 08:29:46;;;;;;;;;;;;;;;20.97;100.00;166054.53;5072046;28;20221;-58
2022/06/15 08:32:12;;;;;;;11.18;3.72;;;;;;;21.04;100.00;166073.53;5070074;28;20362;-58
2022/06/15 08:34:39;;;;;;;5.32;2.90;;;;;;;20.88;100.00;166031.47;5071822;28;20028;-57
2022/06/15 08:37:07;;;;;;;6.68;2.95;;;;;;;21.17;100.00;166108.91;5069575;28;20039;-58
2022/06/15 08:39:33;;;;;;;4.78;2.08;;;;;;;21.31;100.00;166144.19;5071649;28;20021;-58
2022/06/15 08:42:14;;;;;;;8.02;2.40;;;;;;;21.39;100.00;166167.25;5069833;28;20037;-57
2022/06/15 08:45:13;;;;;;;6.13;2.70;;;;;;;21.73;100.00;166255.59;5068458;28;20421;-58
2022/06/15 08:47:54;;;;;;;6.35;2.30;;;;;;;21.87;100.00;166293.63;5070034;28;20408;-58
2022/06/15 08:50:34;;;;;;;8.40;2.95;;;;;;;22.10;100.00;166353.41;5069679;28;20131;-58
2022/06/15 08:53:13;;;;;;;6.00;2.50;;;;;;;22.35;100.00;166418.66;5070323;28;20040;-58
2022/06/15 08:55:51;;;;;;;7.15;2.30;;;;;;;22.70;100.00;166511.09;5069754;28;20526;-58
2022/06/15 08:59:01;;;;;;;4.00;2.13;;;;;;;21.71;98.75;166250.16;5071153;28;20032;-57
2022/06/15 09:01:37;;;;;;;12.77;2.88;;;;;;;21.54;97.48;166205.28;5063733;28;20437;-57
2022/06/15 09:04:48;;;;;;;5.88;2.55;;;;;;;21.63;95.15;166228.47;5070449;28;20031;-58
2022/06/15 09:07:36;;;;;;;5.47;2.13;;;;;;;21.85;94.61;166288.25;5069510;28;20036;-58
2022/06/15 09:10:14;;;;;;;;;;;;;;;22.32;99.43;166410.47;5070054;28;20058;-58
2022/06/15 09:13:04;;;;;;;7.32;2.65;;;;;;;22.13;89.31;166361.59;5070757;28;19934;-58
2022/06/15 09:16:06;;;;;;;5.57;2.55;;;;;;;22.10;90.63;166353.41;5069111;28;20065;-58
2022/06/15 09:18:39;;;;;;;5.00;2.10;;;;;;;22.48;89.26;166454.00;5071038;28;20390;-58
2022/06/15 09:21:27;;;;;;;9.85;3.13;;;;;;;22.40;87.59;166432.28;5069197;28;20073;-58
2022/06/15 09:24:01;;;;;;;8.80;2.33;;;;;;;22.40;86.33;166430.94;5067292;28;20474;-58
2022/06/15 09:26:40;;;;;;;7.65;3.05;;;;;;;22.31;89.58;166407.75;5069218;28;20528;-58
2022/06/15 09:29:12;;;;;;;7.97;2.78;;;;;;;22.48;88.10;166454.00;5070123;28;20031;-58
2022/06/15 09:31:49;;;;;;;5.65;2.90;;;;;;;22.59;86.90;166481.22;5068339;28;20102;-58
2022/06/15 09:34:21;;;;;;;13.95;3.42;;;;;;;23.14;87.61;166626.63;5070782;28;20035;-59
2022/06/15 09:36:51;;;;;;;6.85;1.92;;;;;;;23.48;83.29;166715.03;5068641;28;20451;-59
2022/06/15 09:39:17;;;;;;;20.13;2.95;;;;;;;23.85;85.59;166812.94;5070629;28;20021;-58
2022/06/15 09:41:47;;;;;;;7.05;3.08;;;;;;;23.52;81.30;166725.91;5069105;28;20519;-58
2022/06/15 09:44:36;;;;;;;4.00;2.63;;;;;;;23.60;85.98;166747.66;5070045;28;20035;-58
2022/06/15 09:47:14;;;;;;;6.35;2.83;;;;;;;23.43;79.05;166704.16;5068157;28;20543;-58
2022/06/15 09:49:57;;;;;;;7.38;2.92;;;;;;;23.56;79.06;166736.81;5069751;28;20020;-58
2022/06/15 09:52:41;;;;;;;7.82;2.78;;;;;;;22.70;81.85;166509.75;5064688;28;20627;-58
2022/06/15 09:55:07;;;;;;;17.23;4.30;;;;;;;22.46;82.87;166448.56;5068517;28;20036;-58
2022/06/15 09:57:33;;;;;;;7.03;2.75;;;;;;;22.50;82.17;166459.47;5070132;28;20103;-58
2022/06/15 10:00:02;;;;;;;7.60;2.17;;;;;;;22.81;83.05;166541.00;5066104;28;20401;-58
2022/06/15 10:02:34;;;;;;;6.30;2.28;;;;;;;23.12;83.57;166621.19;5050307;28;20523;-58
2022/06/15 10:05:04;;;;;;;7.57;2.42;;;;;;;22.87;80.18;166554.59;5048330;28;20055;-58
2022/06/15 10:07:43;;;;;;;9.15;2.60;;;;;;;23.01;82.98;166592.63;5049878;28;20017;-58
2022/06/15 10:10:18;;;;;;;7.63;2.20;;;;;;;22.77;82.17;166528.78;5048724;28;20505;-58
2022/06/15 10:13:17;;;;;;;5.13;2.65;;;;;;;22.84;80.67;166546.41;5054949;28;20023;-58
2022/06/15 10:15:42;;;;;;;25.15;3.35;;;;;;;23.35;84.01;166681.03;5049909;28;20501;-58
2022/06/15 10:18:23;;;;;;;6.85;2.53;;;;;;;23.62;81.81;166753.13;5049722;28;20104;-58
2022/06/15 10:21:05;;;;;;;9.55;2.80;;;;;;;23.88;85.15;166821.06;5048293;28;20573;-58
2022/06/15 10:23:51;;;;;;;8.63;2.92;;;;;;;23.74;80.08;166785.72;5050466;28;20116;-58
2022/06/15 10:26:43;;;;;;;7.55;2.45;;;;;;;23.34;75.68;166679.72;5060555;28;20507;-58
2022/06/15 10:29:14;;;;;;;11.60;2.65;;;;;;;23.48;78.10;166716.38;5051413;28;20017;-58
2022/06/15 10:31:42;;;;;;;7.78;2.80;;;;;;;23.55;79.15;166734.06;5054979;28;20051;-58
2022/06/15 10:34:20;;;;;;;7.22;2.95;;;;;;;23.37;74.73;166686.50;5067129;28;20119;-58
2022/06/15 10:36:51;;;;;;;;;;;;;;;23.34;82.08;166679.72;5068731;28;20508;-58
2022/06/15 10:39:23;;;;;;;5.18;2.33;;;;;;;23.90;77.61;166827.88;5050973;28;19986;-58
2022/06/15 10:41:49;;;;;;;3.63;1.85;;;;;;;24.34;79.72;166943.53;5049623;28;20651;-58
2022/06/15 10:44:39;;;;;;;8.00;2.80;;;;;;;24.32;74.40;166936.75;5053841;28;20509;-58
2022/06/15 10:47:20;;;;;;;8.00;3.05;;;;;;;24.02;72.48;166859.19;5052057;28;20124;-58
2022/06/15 10:49:51;;;;;;;9.82;2.88;;;;;;;24.04;73.86;166864.66;5054054;28;20025;-58
2022/06/15 10:52:24;;;;;;;6.15;2.35;;;;;;;24.17;71.06;166898.66;5071944;28;20068;-58
2022/06/15 11:03:37;;;;;;;8.95;2.50;;;;;;;-146.58;100.00;69501.63;5073732;28;20035;-58
2022/06/15 11:06:02;;;;;;;5.30;1.98;;;;;;;24.30;71.69;166932.66;5071461;28;20041;-59
2022/06/15 11:08:32;;;;;;;5.22;2.05;;;;;;;25.09;73.23;167140.84;5073187;28;20383;-58
2022/06/15 11:11:26;;;;;;;10.75;2.92;;;;;;;25.54;66.93;167257.94;5071493;28;20068;-58
2022/06/15 11:13:56;;;;;;;6.93;3.15;;;;;;;25.75;65.65;167315.09;5072748;28;20033;-59
2022/06/15 11:19:17;;;;;;;3.45;2.15;;;;;;;26.71;64.81;167566.94;5073382;28;20089;-59
2022/06/15 11:21:52;;;;;;;4.72;2.10;;;;;;;26.67;63.43;167557.41;5071317;28;20033;-58
2022/06/15 11:24:30;;;;;;;8.20;2.65;;;;;;;27.46;61.96;167765.88;5072846;28;20107;-58
2022/06/15 11:27:16;;;;;;;9.45;1.90;;;;;;;27.32;58.79;167727.69;5071371;28;20037;-59
2022/06/15 11:30:04;;;;;;;6.45;2.47;;;;;;;27.26;54.49;167711.34;5069558;28;20025;-59
2022/06/15 11:32:44;;;;;;;5.72;2.20;;;;;;;26.49;56.65;167508.41;5071291;28;20178;-58
2022/06/15 11:35:21;;;;;;;5.35;1.73;;;;;;;26.73;56.86;167573.75;5070966;28;20036;-59
2022/06/15 11:37:53;;;;;;;6.55;2.05;;;;;;;26.19;60.18;167429.47;5072477;28;20097;-59
2022/06/15 11:40:48;;;;;;;6.50;2.00;;;;;;;25.22;57.76;167174.84;5071268;28;20060;-58
2022/06/15 11:43:23;;;;;;;3.72;2.17;;;;;;;24.80;58.04;167064.63;5070056;28;20040;-59
2022/06/15 11:46:14;;;;;;;5.53;2.33;;;;;;;-146.58;100.00;69501.63;5051550;28;20102;-59
2022/06/15 11:48:54;;;;;;;3.65;1.73;;;;;;;-146.58;100.00;69501.63;5072183;28;20050;-59
2022/06/15 11:52:05;;;;;;;11.57;2.75;;;;;;;24.84;62.08;167074.16;5070663;28;20177;-58
2022/06/15 11:55:08;;;;;;;8.13;2.35;;;;;;;25.25;64.90;167181.63;5065752;28;20041;-58
2022/06/15 11:57:45;;;;;;;8.23;2.03;;;;;;;25.64;62.75;167286.50;5070394;28;20048;-59